createdAt,value
2022-10-21T00:01:06.146Z,96363.63
2022-10-21T00:03:34.416Z,96368.66
2022-10-21T00:06:02.623Z,96360.47
2022-10-21T00:08:30.908Z,96363.13
2022-10-21T00:11:02.999Z,96369.81
2022-10-21T00:13:34.075Z,96381.69
2022-10-21T00:16:08.162Z,96376.16
2022-10-21T00:18:38.547Z,96371.19
2022-10-21T00:21:08.534Z,96371.09
2022-10-21T00:23:36.885Z,96370.28
2022-10-21T00:26:05.732Z,96367.06
2022-10-21T00:28:34.339Z,96370.22
2022-10-21T00:31:06.460Z,96364.38
2022-10-21T00:33:34.564Z,96356.16
2022-10-21T00:36:03.966Z,96359.09
2022-10-21T00:38:33.459Z,96352.69
2022-10-21T00:41:01.944Z,96353.19
2022-10-21T00:43:30.466Z,96356.41
2022-10-21T00:46:04.747Z,96359.25
2022-10-21T00:48:39.526Z,96350.09
2022-10-21T00:51:11.600Z,96353.19
2022-10-21T00:53:43.850Z,96346.03
2022-10-21T00:56:16.863Z,96351.97
2022-10-21T00:58:46.739Z,96341.34
2022-10-21T01:01:19.405Z,96345.78
2022-10-21T01:03:50.327Z,96347.72
2022-10-21T01:06:22.741Z,96351.41
2022-10-21T01:08:52.984Z,96360.56
2022-10-21T01:11:22.437Z,96363.44
2022-10-21T01:14:33.237Z,96363.13
2022-10-21T01:17:26.542Z,96359.34
2022-10-21T01:20:38.768Z,96361.41
2022-10-21T01:24:10.316Z,96359.13
2022-10-21T01:27:13.568Z,96357.81
2022-10-21T01:30:18.122Z,96348.50
2022-10-21T01:33:17.739Z,96341.34
2022-10-21T01:35:54.405Z,96322.44
2022-10-21T01:38:31.678Z,96317.72
2022-10-21T01:41:09.431Z,96311.31
2022-10-21T01:43:47.496Z,96312.13
2022-10-21T01:46:20.291Z,96317.41
2022-10-21T01:48:55.668Z,96315.50
2022-10-21T01:51:27.726Z,96317.41
2022-10-21T01:54:04.331Z,96329.44
2022-10-21T01:56:34.441Z,96324.13
2022-10-21T01:59:04.730Z,96318.97
2022-10-21T02:01:35.841Z,96328.53
2022-10-21T02:04:09.490Z,96324.06
2022-10-21T02:06:37.708Z,96305.25
2022-10-21T02:09:06.043Z,96316.66
2022-10-21T02:11:36.620Z,96295.22
2022-10-21T02:14:10.544Z,96286.59
2022-10-21T02:16:41.647Z,96284.31
2022-10-21T02:19:16.425Z,96274.50
2022-10-21T02:21:46.627Z,96271.91
2022-10-21T02:24:21.800Z,96271.91
2022-10-21T02:26:50.135Z,96264.44
2022-10-21T02:29:24.835Z,96253.56
2022-10-21T02:32:10.039Z,96243.75
2022-10-21T02:34:55.325Z,96237.13
2022-10-21T02:37:32.660Z,96233.19
2022-10-21T02:40:07.733Z,96228.97
2022-10-21T02:42:41.415Z,96228.41
2022-10-21T02:45:11.322Z,96235.09
2022-10-21T02:47:40.537Z,96232.44
2022-10-21T02:50:12.928Z,96219.94
2022-10-21T02:52:41.018Z,96204.06
2022-10-21T02:55:10.121Z,96192.94
2022-10-21T02:57:38.332Z,96190.28
2022-10-21T03:00:08.023Z,96205.75
2022-10-21T03:02:36.161Z,96203.56
2022-10-21T03:05:04.689Z,96204.16
2022-10-21T03:07:34.090Z,96190.78
2022-10-21T03:10:02.232Z,96190.78
2022-10-21T03:12:30.281Z,96184.94
2022-10-21T03:14:58.478Z,96187.88
2022-10-21T03:17:26.533Z,96188.94
2022-10-21T03:19:54.574Z,96186.34
2022-10-21T03:22:22.568Z,96186.59
2022-10-21T03:24:51.992Z,96183.19
2022-10-21T03:27:20.104Z,96189.56
2022-10-21T03:29:48.198Z,96176.53
2022-10-21T03:32:16.312Z,96173.31
2022-10-21T03:34:44.475Z,96184.97
2022-10-21T03:37:12.540Z,96188.44
2022-10-21T03:39:40.556Z,96190.28
2022-10-21T03:42:09.920Z,96195.66
2022-10-21T03:44:37.994Z,96189.25
2022-10-21T03:47:06.049Z,96193.00
2022-10-21T03:52:03.189Z,96190.34
2022-10-21T03:54:31.235Z,96188.00
2022-10-21T03:56:59.316Z,96185.88
2022-10-21T03:59:28.937Z,96185.13
2022-10-21T04:01:57.084Z,96174.16
2022-10-21T04:04:25.160Z,96185.34
2022-10-21T04:06:53.271Z,96178.44
2022-10-21T04:09:21.328Z,96163.84
2022-10-21T04:11:49.360Z,96152.66
2022-10-21T04:14:17.495Z,96156.41
2022-10-21T04:16:48.080Z,96156.41
2022-10-21T04:19:20.064Z,96146.13
2022-10-21T04:21:48.553Z,96149.56
2022-10-21T04:24:16.597Z,96145.06
2022-10-21T04:26:44.728Z,96144.25
2022-10-21T04:29:12.850Z,96149.31
2022-10-21T04:31:40.995Z,96150.94
2022-10-21T04:34:10.481Z,96136.88
2022-10-21T04:36:38.524Z,96133.44
2022-10-21T04:39:06.715Z,96129.97
2022-10-21T04:41:34.979Z,96131.31
2022-10-21T04:44:03.351Z,96131.31
2022-10-21T04:46:31.553Z,96124.16
2022-10-21T04:48:59.817Z,96114.31
2022-10-21T04:51:29.342Z,96122.03
2022-10-21T04:53:57.489Z,96122.03
2022-10-21T04:56:28.148Z,96121.25
2022-10-21T04:58:56.213Z,96123.34
2022-10-21T05:01:24.337Z,96137.47
2022-10-21T05:03:52.468Z,96138.53
2022-10-21T05:06:20.606Z,96137.53
2022-10-21T05:08:50.145Z,96131.13
2022-10-21T05:11:18.300Z,96132.72
2022-10-21T05:13:47.105Z,96133.22
2022-10-21T05:16:15.240Z,96128.25
2022-10-21T05:18:43.404Z,96126.09
2022-10-21T05:21:11.510Z,96134.88
2022-10-21T05:23:39.838Z,96137.72
2022-10-21T05:26:09.462Z,96130.81
2022-10-21T05:28:38.057Z,96132.13
2022-10-21T05:31:06.535Z,96131.63
2022-10-21T05:33:34.636Z,96131.63
2022-10-21T05:36:07.858Z,96123.09
2022-10-21T05:38:36.482Z,96121.47
2022-10-21T05:41:05.117Z,96111.66
2022-10-21T05:43:34.728Z,96120.44
2022-10-21T05:46:02.795Z,96113.28
2022-10-21T05:48:30.919Z,96117.00
2022-10-21T05:50:59.124Z,96123.41
2022-10-21T05:53:27.482Z,96111.94
2022-10-21T05:56:00.918Z,96112.47
2022-10-21T05:58:30.862Z,96108.78
2022-10-21T06:01:00.904Z,96105.06
2022-10-21T06:03:32.382Z,96099.25
2022-10-21T06:06:03.425Z,96093.13
2022-10-21T06:08:33.837Z,96085.91
2022-10-21T06:11:03.357Z,96080.91
2022-10-21T06:13:31.712Z,96081.41
2022-10-21T06:16:01.632Z,96090.22
2022-10-21T06:18:30.251Z,96106.16
2022-10-21T06:20:58.299Z,96117.56
2022-10-21T06:23:27.062Z,96119.69
2022-10-21T06:26:00.057Z,96106.41
2022-10-21T06:28:30.473Z,96106.41
2022-10-21T06:31:00.583Z,96105.91
2022-10-21T06:33:28.739Z,96110.41
2022-10-21T06:35:57.366Z,96116.28
2022-10-21T06:38:26.498Z,96125.59
2022-10-21T06:41:01.393Z,96135.94
2022-10-21T06:43:29.772Z,96122.66
2022-10-21T06:46:02.253Z,96145.00
2022-10-21T06:48:30.936Z,96151.91
2022-10-21T06:51:00.685Z,96163.88
2022-10-21T06:53:29.369Z,96185.91
2022-10-21T06:56:05.053Z,96175.34
2022-10-21T06:58:33.456Z,96162.53
2022-10-21T07:04:49.948Z,96157.75
2022-10-21T07:07:18.087Z,96159.41
2022-10-21T07:09:46.494Z,96151.22
2022-10-21T07:12:14.652Z,96157.31
2022-10-21T07:14:42.715Z,96147.19
2022-10-21T07:17:12.166Z,96105.16
2022-10-21T07:19:40.279Z,96109.16
2022-10-21T07:22:08.329Z,96107.59
2022-10-21T07:24:37.185Z,96130.19
2022-10-21T07:27:05.430Z,96137.09
2022-10-21T07:29:33.722Z,96153.84
2022-10-21T07:32:01.806Z,96157.84
2022-10-21T07:34:31.229Z,96157.84
2022-10-21T07:36:59.280Z,96168.75
2022-10-21T07:39:28.603Z,96178.84
2022-10-21T07:41:58.795Z,96179.34
2022-10-21T07:44:27.739Z,96147.13
2022-10-21T07:46:56.535Z,96139.97
2022-10-21T07:49:25.566Z,96137.31
2022-10-21T07:51:55.008Z,96140.28
2022-10-21T07:54:23.289Z,96138.94
2022-10-21T07:56:53.591Z,96148.78
2022-10-21T07:59:23.559Z,96137.63
2022-10-21T08:01:52.933Z,96128.09
2022-10-21T08:04:29.633Z,96122.75
2022-10-21T08:06:59.775Z,96120.63
2022-10-21T08:09:27.899Z,96127.53
2022-10-21T08:11:57.049Z,96141.13
2022-10-21T08:14:25.427Z,96148.03
2022-10-21T08:16:54.429Z,96152.84
2022-10-21T08:19:29.446Z,96148.56
2022-10-21T08:22:00.809Z,96150.44
2022-10-21T08:24:29.147Z,96152.03
2022-10-21T08:26:57.285Z,96149.63
2022-10-21T08:29:25.401Z,96135.81
2022-10-21T08:31:53.692Z,96138.22
2022-10-21T08:34:21.854Z,96136.34
2022-10-21T08:36:49.979Z,96140.34
2022-10-21T08:39:19.457Z,96151.53
2022-10-21T08:42:08.606Z,96141.97
2022-10-21T08:44:50.630Z,96186.09
2022-10-21T08:47:30.526Z,96141.97
2022-10-21T08:50:03.896Z,96153.63
2022-10-21T08:52:45.477Z,96199.91
2022-10-21T08:55:20.490Z,96177.53
2022-10-21T08:57:50.106Z,96185.50
2022-10-21T09:00:21.834Z,96203.38
2022-10-21T09:03:08.507Z,96202.03
2022-10-21T09:06:02.617Z,96207.34
2022-10-21T09:08:38.220Z,96194.06
2022-10-21T09:11:20.343Z,96210.03
2022-10-21T09:14:31.786Z,96221.75
2022-10-21T09:17:12.101Z,96219.66
2022-10-21T09:19:49.905Z,96223.44
2022-10-21T09:22:41.088Z,96214.13
2022-10-21T09:25:21.886Z,96224.97
2022-10-21T09:27:56.486Z,96223.88
2022-10-21T09:30:26.539Z,96244.09
2022-10-21T09:32:59.796Z,96250.41
2022-10-21T09:35:36.073Z,96257.53
2022-10-21T09:38:12.997Z,96264.50
2022-10-21T09:40:41.156Z,96250.13
2022-10-21T09:43:19.153Z,96247.97
2022-10-21T09:45:48.103Z,96248.81
2022-10-21T09:48:31.620Z,96245.66
2022-10-21T09:51:11.480Z,96243.25
2022-10-21T09:53:53.706Z,96243.78
2022-10-21T09:56:26.921Z,96243.56
2022-10-21T09:59:08.555Z,96238.19
2022-10-21T10:01:38.665Z,96247.00
2022-10-21T10:04:13.537Z,96253.66
2022-10-21T10:06:43.787Z,96248.88
2022-10-21T10:09:26.293Z,96248.97
2022-10-21T10:11:58.601Z,96245.19
2022-10-21T10:14:33.396Z,96242.03
2022-10-21T10:17:28.881Z,96247.38
2022-10-21T10:20:20.409Z,96254.28
2022-10-21T10:23:10.756Z,96251.53
2022-10-21T10:25:40.567Z,96249.22
2022-10-21T10:28:24.659Z,96252.13
2022-10-21T10:30:56.956Z,96253.66
2022-10-21T10:33:28.970Z,96253.91
2022-10-21T10:35:59.701Z,96258.47
2022-10-21T10:38:35.285Z,96254.97
2022-10-21T10:41:09.146Z,96257.44
2022-10-21T10:43:45.630Z,96263.06
2022-10-21T10:46:26.055Z,96263.53
2022-10-21T10:48:55.586Z,96272.81
2022-10-21T10:51:32.324Z,96271.25
2022-10-21T10:54:04.233Z,96258.00
2022-10-21T10:56:38.866Z,96258.59
2022-10-21T10:59:17.905Z,96258.03
2022-10-21T11:01:57.745Z,96255.38
2022-10-21T11:04:34.694Z,96259.38
2022-10-21T11:07:18.751Z,96259.19
2022-10-21T11:09:47.718Z,96252.72
2022-10-21T11:12:23.583Z,96267.16
2022-10-21T11:14:59.392Z,96268.25
2022-10-21T11:17:37.955Z,96268.75
2022-10-21T11:20:18.700Z,96267.91
2022-10-21T11:22:56.645Z,96270.84
2022-10-21T11:25:31.520Z,96265.00
2022-10-21T11:28:15.670Z,96269.53
2022-10-21T11:31:05.168Z,96277.25
2022-10-21T11:33:47.876Z,96273.25
2022-10-21T11:36:27.241Z,96267.41
2022-10-21T11:39:36.913Z,96270.09
2022-10-21T11:42:18.442Z,96267.69
2022-10-21T11:45:06.949Z,96262.16
2022-10-21T11:47:45.452Z,96261.63
2022-10-21T11:50:26.195Z,96258.19
2022-10-21T11:53:14.562Z,96255.28
2022-10-21T11:55:54.682Z,96265.13
2022-10-21T11:58:39.861Z,96259.53
2022-10-21T12:01:25.551Z,96262.47
2022-10-21T12:04:13.426Z,96268.84
2022-10-21T12:06:52.773Z,96254.78
2022-10-21T12:09:27.175Z,96254.78
2022-10-21T12:12:01.365Z,96256.09
2022-10-21T12:14:41.337Z,96259.00
2022-10-21T12:17:14.742Z,96265.66
2022-10-21T12:19:47.442Z,96272.03
2022-10-21T12:22:17.078Z,96266.69
2022-10-21T12:24:51.958Z,96266.72
2022-10-21T12:27:30.917Z,96271.50
2022-10-21T12:30:17.772Z,96269.38
2022-10-21T12:33:04.435Z,96269.38
2022-10-21T12:35:48.080Z,96270.19
2022-10-21T12:38:43.144Z,96271.50
2022-10-21T12:41:34.570Z,96266.72
2022-10-21T12:44:18.635Z,96261.88
2022-10-21T12:46:50.644Z,96264.00
2022-10-21T12:49:30.579Z,96252.56
2022-10-21T12:52:09.358Z,96254.19
2022-10-21T12:54:50.888Z,96254.94
2022-10-21T12:57:28.596Z,96253.38
2022-10-21T13:00:51.037Z,96245.38
2022-10-21T13:03:22.956Z,96246.19
2022-10-21T13:06:07.272Z,96252.31
2022-10-21T13:08:54.045Z,96258.13
2022-10-21T13:11:39.717Z,96250.16
2022-10-21T13:14:39.648Z,96253.34
2022-10-21T13:17:27.919Z,96247.25
2022-10-21T13:19:58.094Z,96249.13
2022-10-21T13:22:36.862Z,96245.69
2022-10-21T13:25:21.612Z,96240.09
2022-10-21T13:27:55.202Z,96226.25
2022-10-21T13:30:31.987Z,96221.50
2022-10-21T13:33:03.100Z,96242.22
2022-10-21T13:35:36.770Z,96243.25
2022-10-21T13:38:19.799Z,96239.56
2022-10-21T13:40:51.029Z,96226.50
2022-10-21T13:43:28.808Z,96231.84
2022-10-21T13:46:06.641Z,96229.44
2022-10-21T13:48:40.293Z,96233.16
2022-10-21T13:51:18.966Z,96235.25
2022-10-21T13:53:48.442Z,96231.03
2022-10-21T13:56:22.959Z,96240.56
2022-10-21T13:58:53.164Z,96228.28
2022-10-21T14:01:25.400Z,96223.84
2022-10-21T14:03:55.571Z,96228.28
2022-10-21T14:06:31.586Z,96225.69
2022-10-21T14:09:04.153Z,96229.88
2022-10-21T14:11:37.646Z,96223.50
2022-10-21T14:14:11.479Z,96217.13
2022-10-21T14:16:43.773Z,96217.69
2022-10-21T14:19:19.823Z,96216.13
2022-10-21T14:21:52.869Z,96212.13
2022-10-21T14:24:32.349Z,96211.81
2022-10-21T14:27:01.897Z,96219.78
2022-10-21T14:29:33.872Z,96222.44
2022-10-21T14:32:02.958Z,96225.88
2022-10-21T14:34:33.694Z,96224.03
2022-10-21T14:37:09.161Z,96224.28
2022-10-21T14:39:40.424Z,96230.16
2022-10-21T14:42:17.475Z,96213.91
2022-10-21T14:44:48.099Z,96220.28
2022-10-21T14:47:22.637Z,96224.59
2022-10-21T14:49:54.684Z,96228.59
2022-10-21T14:52:28.527Z,96221.88
2022-10-21T14:55:00.969Z,96237.56
2022-10-21T14:57:44.415Z,96235.22
2022-10-21T15:00:29.216Z,96233.59
2022-10-21T15:03:00.268Z,96232.81
2022-10-21T15:05:36.666Z,96229.38
2022-10-21T15:08:32.140Z,96228.03
2022-10-21T15:11:30.988Z,96233.81
2022-10-21T15:14:25.734Z,96240.47
2022-10-21T15:16:57.882Z,96246.38
2022-10-21T15:19:30.361Z,96224.53
2022-10-21T15:22:01.587Z,96226.66
2022-10-21T15:24:42.978Z,96216.81
2022-10-21T15:27:18.770Z,96219.78
2022-10-21T15:29:49.217Z,96223.47
2022-10-21T15:32:25.471Z,96231.69
2022-10-21T15:34:56.378Z,96235.44
2022-10-21T15:37:24.518Z,96224.78
2022-10-21T15:39:52.652Z,96219.19
2022-10-21T15:42:20.709Z,96214.94
2022-10-21T15:44:50.897Z,96211.09
2022-10-21T15:47:20.719Z,96197.00
2022-10-21T15:49:49.285Z,96207.13
2022-10-21T15:52:18.264Z,96191.72
2022-10-21T15:54:46.367Z,96188.88
2022-10-21T15:57:19.093Z,96186.19
2022-10-21T15:59:48.204Z,96198.44
2022-10-21T16:02:18.298Z,96204.81
2022-10-21T16:04:47.774Z,96209.81
2022-10-21T16:07:21.438Z,96213.88
2022-10-21T16:09:50.093Z,96204.47
2022-10-21T16:12:20.682Z,96213.28
2022-10-21T16:14:49.085Z,96208.44
2022-10-21T16:17:17.544Z,96217.50
2022-10-21T16:19:46.964Z,96218.06
2022-10-21T16:22:20.547Z,96218.84
2022-10-21T16:24:48.613Z,96217.22
2022-10-21T16:27:26.554Z,96216.94
2022-10-21T16:30:18.157Z,96207.88
2022-10-21T16:32:46.883Z,96213.44
2022-10-21T16:35:18.993Z,96213.16
2022-10-21T16:37:48.546Z,96210.75
2022-10-21T16:40:22.032Z,96209.69
2022-10-21T16:42:50.995Z,96218.72
2022-10-21T16:45:21.077Z,96221.94
2022-10-21T16:47:53.443Z,96219.50
2022-10-21T16:50:26.720Z,96221.13
2022-10-21T16:52:54.933Z,96218.47
2022-10-21T16:55:23.014Z,96215.56
2022-10-21T16:57:51.044Z,96216.88
2022-10-21T17:00:19.175Z,96228.59
2022-10-21T17:02:50.407Z,96226.47
2022-10-21T17:05:18.953Z,96229.13
2022-10-21T17:07:48.365Z,96223.28
2022-10-21T17:10:16.687Z,96225.69
2022-10-21T17:12:45.207Z,96215.00
2022-10-21T17:15:16.927Z,96216.06
2022-10-21T17:17:45.071Z,96208.31
2022-10-21T17:20:13.376Z,96221.06
2022-10-21T17:22:41.520Z,96231.19
2022-10-21T17:25:12.725Z,96230.69
2022-10-21T17:27:41.285Z,96235.66
2022-10-21T17:30:12.216Z,96236.97
2022-10-21T17:35:14.207Z,96241.25
2022-10-21T17:37:42.254Z,96240.97
2022-10-21T17:40:17.921Z,96244.72
2022-10-21T17:42:46.037Z,96234.84
2022-10-21T17:45:16.037Z,96218.88
2022-10-21T17:47:44.967Z,96220.75
2022-10-21T17:50:14.619Z,96224.44
2022-10-21T17:52:43.586Z,96220.16
2022-10-21T17:55:13.158Z,96226.84
2022-10-21T17:57:41.285Z,96219.19
2022-10-21T18:00:10.818Z,96224.19
2022-10-21T18:02:39.402Z,96224.19
2022-10-21T18:05:10.893Z,96222.59
2022-10-21T18:07:39.621Z,96214.59
2022-10-21T18:10:09.459Z,96214.59
2022-10-21T18:12:39.028Z,96211.97
2022-10-21T18:15:08.592Z,96197.34
2022-10-21T18:17:37.438Z,96201.31
2022-10-21T18:20:07.986Z,96201.56
2022-10-21T18:22:36.133Z,96195.16
2022-10-21T18:25:04.357Z,96197.28
2022-10-21T18:27:32.486Z,96193.28
2022-10-21T18:30:03.992Z,96198.91
2022-10-21T18:32:32.218Z,96198.06
2022-10-21T18:35:00.269Z,96194.09
2022-10-21T18:37:28.481Z,96198.53
2022-10-21T18:39:58.909Z,96186.22
2022-10-21T18:42:27.263Z,96194.00
2022-10-21T18:44:55.411Z,96196.63
2022-10-21T18:47:24.860Z,96195.53
2022-10-21T18:49:53.572Z,96189.50
2022-10-21T18:52:21.711Z,96187.66
2022-10-21T18:54:49.792Z,96186.84
2022-10-21T18:57:18.000Z,96191.09
2022-10-21T18:59:46.145Z,96194.31
2022-10-21T19:02:21.380Z,96206.03
2022-10-21T19:04:51.500Z,96194.34
2022-10-21T19:07:20.363Z,96203.34
2022-10-21T19:09:48.508Z,96203.06
2022-10-21T19:12:21.043Z,96200.69
2022-10-21T19:14:51.380Z,96203.34
2022-10-21T19:17:20.026Z,96205.19
2022-10-21T19:19:48.103Z,96198.81
2022-10-21T19:22:18.339Z,96187.13
2022-10-21T19:24:46.464Z,96189.00
2022-10-21T19:27:14.592Z,96192.19
2022-10-21T19:29:43.368Z,96202.81
2022-10-21T19:32:13.073Z,96198.59
2022-10-21T19:34:41.188Z,96191.94
2022-10-21T19:37:09.581Z,96190.88
2022-10-21T19:39:39.268Z,96190.63
2022-10-21T19:42:07.389Z,96195.41
2022-10-21T19:44:35.572Z,96198.59
2022-10-21T19:47:03.664Z,96204.44
2022-10-21T19:49:31.793Z,96200.22
2022-10-21T19:51:59.975Z,96189.28
2022-10-21T19:54:28.219Z,96195.69
2022-10-21T19:56:57.733Z,96196.25
2022-10-21T19:59:25.922Z,96208.47
2022-10-21T20:01:54.048Z,96207.38
2022-10-21T20:04:22.619Z,96206.59
2022-10-21T20:06:50.733Z,96215.63
2022-10-21T20:09:18.806Z,96215.13
2022-10-21T20:11:46.863Z,96216.47
2022-10-21T20:14:16.755Z,96213.78
2022-10-21T20:16:47.007Z,96220.69
2022-10-21T20:19:15.445Z,96225.75
2022-10-21T20:21:44.414Z,96229.22
2022-10-21T20:24:15.625Z,96234.00
2022-10-21T20:26:45.601Z,96239.59
2022-10-21T20:29:15.382Z,96244.09
2022-10-21T20:31:44.833Z,96248.59
2022-10-21T20:34:14.220Z,96251.22
2022-10-21T20:36:42.641Z,96245.16
2022-10-21T20:39:12.022Z,96246.19
2022-10-21T20:41:40.750Z,96241.69
2022-10-21T20:44:16.027Z,96228.41
2022-10-21T20:46:46.841Z,96242.19
2022-10-21T20:49:14.948Z,96231.78
2022-10-21T20:51:43.723Z,96224.31
2022-10-21T20:54:15.626Z,96237.59
2022-10-21T20:56:44.844Z,96238.91
2022-10-21T20:59:16.071Z,96240.00
2022-10-21T21:01:47.830Z,96243.44
2022-10-21T21:04:18.142Z,96242.03
2022-10-21T21:06:48.851Z,96247.06
2022-10-21T21:12:07.900Z,96240.06
2022-10-21T21:14:35.959Z,96253.28
2022-10-21T21:17:06.418Z,96249.53
2022-10-21T21:19:34.596Z,96264.72
2022-10-21T21:22:03.769Z,96280.91
2022-10-21T21:24:32.121Z,96283.03
2022-10-21T21:27:00.208Z,96295.75
2022-10-21T21:29:28.455Z,96296.22
2022-10-21T21:31:56.518Z,96304.81
2022-10-21T21:34:25.961Z,96308.56
2022-10-21T21:36:54.036Z,96318.88
2022-10-21T21:39:22.144Z,96316.78
2022-10-21T21:41:50.225Z,96320.78
2022-10-21T21:44:18.308Z,96329.53
2022-10-21T21:46:46.410Z,96330.53
2022-10-21T21:49:14.835Z,96326.28
2022-10-21T21:51:44.238Z,96319.84
2022-10-21T21:54:12.365Z,96308.16
2022-10-21T21:56:40.416Z,96313.97
2022-10-21T21:59:08.617Z,96314.53
2022-10-21T22:01:36.823Z,96308.38
2022-10-21T22:04:05.190Z,96293.22
2022-10-21T22:06:36.900Z,96288.72
2022-10-21T22:09:11.639Z,96277.50
2022-10-21T22:11:40.100Z,96279.28
2022-10-21T22:14:08.154Z,96295.78
2022-10-21T22:16:36.840Z,96291.47
2022-10-21T22:19:05.896Z,96298.56
2022-10-21T22:21:34.030Z,96294.94
2022-10-21T22:24:02.135Z,96296.25
2022-10-21T22:26:31.564Z,96295.75
2022-10-21T22:28:59.628Z,96295.13
2022-10-21T22:31:30.435Z,96298.66
2022-10-21T22:34:00.659Z,96299.19
2022-10-21T22:36:29.170Z,96302.41
2022-10-21T22:38:57.249Z,96302.22
2022-10-21T22:41:25.310Z,96303.03
2022-10-21T22:43:54.801Z,96294.22
2022-10-21T22:46:34.335Z,96294.38
2022-10-21T22:49:04.173Z,96303.41
2022-10-21T22:51:32.878Z,96294.81
2022-10-21T22:54:01.462Z,96309.94
2022-10-21T22:56:30.030Z,96310.28
2022-10-21T22:58:59.793Z,96318.53
2022-10-21T23:01:30.313Z,96326.22
2022-10-21T23:04:02.676Z,96327.28
2022-10-21T23:06:31.280Z,96336.59
2022-10-21T23:08:59.748Z,96348.00
2022-10-21T23:11:28.425Z,96351.28
2022-10-21T23:14:03.344Z,96372.53
2022-10-21T23:16:37.906Z,96382.69
2022-10-21T23:19:06.963Z,96382.69
2022-10-21T23:21:35.172Z,96380.75
2022-10-21T23:24:03.542Z,96386.88
2022-10-21T23:26:31.609Z,96384.16
2022-10-21T23:28:59.677Z,96386.00
2022-10-21T23:31:27.809Z,96395.03
2022-10-21T23:33:57.233Z,96389.13
2022-10-21T23:36:25.454Z,96378.88
2022-10-21T23:38:56.420Z,96382.53
2022-10-21T23:41:24.908Z,96370.38
2022-10-21T23:43:52.949Z,96364.22
2022-10-21T23:46:21.525Z,96363.66
2022-10-21T23:48:49.709Z,96365.50
2022-10-21T23:51:19.628Z,96357.00
2022-10-21T23:53:47.796Z,96353.31
2022-10-21T23:56:15.881Z,96358.84
2022-10-21T23:58:43.954Z,96345.34
